aviador You're here:

PARC Decoded Metar

ARCTIC VILLAGE in AK, USA
Report Time2017-10-19 07:56:00
UTC Time2017-10-19 08:53:40
Flight Rules vfr VFR
WindCalm
Visibility9999 m
Phenomena:N/A
Clouds:N/A
Expected CloudBase > 800 ft AGL from Temp-Dew spread
CeilingNone
Temp-21°C (ISA -32)
Dew Point-23°C (84% RH)
AAT-24.7°C
QNH990 hPa
Density Alt-1,152 ft
Elevation2,087 ft
Report Wrong Elevation
Raw Report
PARC 190756Z AUTO 00000KT 10SM CLR M21/M23 A2924 RMK AO2 SLP979
T12061233 410941217 FZRANO=

Extra information for PARC:More info

Airport Information Weather charts Add Link Nearby Venues Social comments

AIRNAV info for PARC